createdAt,value
2019-05-10T00:00:15.340Z,99.90
2019-05-10T00:03:01.919Z,99.90
2019-05-10T00:05:49.033Z,99.90
2019-05-10T00:08:35.694Z,99.90
2019-05-10T00:11:06.488Z,99.90
2019-05-10T00:13:53.988Z,99.90
2019-05-10T00:16:23.698Z,99.90
2019-05-10T00:18:52.351Z,99.90
2019-05-10T00:21:20.992Z,99.90
2019-05-10T00:23:49.541Z,99.90
2019-05-10T00:26:18.294Z,99.90
2019-05-10T00:28:46.831Z,99.90
2019-05-10T00:31:15.386Z,99.90
2019-05-10T00:33:44.000Z,99.90
2019-05-10T00:36:12.563Z,99.90
2019-05-10T00:38:41.032Z,99.90
2019-05-10T00:41:09.607Z,99.90
2019-05-10T00:43:38.152Z,99.90
2019-05-10T00:46:06.724Z,99.90
2019-05-10T00:48:35.272Z,99.90
2019-05-10T00:51:03.914Z,99.90
2019-05-10T00:53:32.530Z,99.90
2019-05-10T00:56:01.106Z,99.90
2019-05-10T00:58:30.013Z,99.90
2019-05-10T01:00:58.540Z,99.90
2019-05-10T01:03:27.020Z,99.90
2019-05-10T01:05:55.584Z,99.90
2019-05-10T01:08:24.118Z,99.90
2019-05-10T01:10:52.585Z,99.90
2019-05-10T01:13:21.142Z,99.90
2019-05-10T01:15:49.677Z,99.90
2019-05-10T01:18:18.257Z,99.90
2019-05-10T01:20:46.864Z,99.90
2019-05-10T01:23:15.427Z,99.90
2019-05-10T01:25:43.966Z,99.90
2019-05-10T01:28:12.589Z,99.90
2019-05-10T01:30:41.688Z,99.90
2019-05-10T01:33:10.253Z,99.90
2019-05-10T01:35:38.795Z,99.90
2019-05-10T01:38:07.354Z,99.90
2019-05-10T01:40:35.826Z,99.90
2019-05-10T01:43:04.515Z,99.90
2019-05-10T01:45:32.991Z,99.90
2019-05-10T01:48:01.559Z,99.90
2019-05-10T01:50:30.101Z,99.90
2019-05-10T01:52:58.659Z,99.90
2019-05-10T01:55:27.121Z,99.90
2019-05-10T01:57:55.686Z,99.90
2019-05-10T02:00:24.356Z,99.90
2019-05-10T02:02:52.926Z,99.90
2019-05-10T02:05:21.530Z,99.90
2019-05-10T02:07:50.097Z,99.90
2019-05-10T02:10:18.701Z,99.90
2019-05-10T02:12:47.374Z,99.90
2019-05-10T02:15:16.269Z,99.90
2019-05-10T02:17:44.898Z,99.90
2019-05-10T02:20:13.583Z,99.90
2019-05-10T02:22:42.153Z,99.90
2019-05-10T02:25:11.032Z,99.90
2019-05-10T02:27:39.703Z,99.90
2019-05-10T02:30:08.568Z,99.90
2019-05-10T02:32:37.132Z,99.90
2019-05-10T02:35:08.479Z,99.90
2019-05-10T02:37:37.215Z,99.90
2019-05-10T02:40:07.051Z,99.90
2019-05-10T02:42:35.620Z,99.90
2019-05-10T02:45:06.907Z,99.90
2019-05-10T02:47:35.463Z,99.90
2019-05-10T02:50:06.250Z,99.90
2019-05-10T02:52:34.789Z,99.90
2019-05-10T02:55:04.296Z,99.90
2019-05-10T02:57:33.008Z,99.90
2019-05-10T03:00:03.791Z,99.90
2019-05-10T03:02:33.335Z,99.90
2019-05-10T03:05:03.630Z,99.90
2019-05-10T03:07:35.258Z,99.90
2019-05-10T03:10:06.268Z,99.90
2019-05-10T03:12:37.873Z,99.90
2019-05-10T03:15:08.988Z,99.90
2019-05-10T03:17:40.123Z,99.90
2019-05-10T03:20:10.636Z,99.90
2019-05-10T03:22:43.059Z,99.90
2019-05-10T03:25:12.397Z,99.90
2019-05-10T03:27:41.342Z,99.90
2019-05-10T03:30:10.352Z,99.90
2019-05-10T03:32:38.937Z,99.90
2019-05-10T03:35:08.645Z,99.90
2019-05-10T03:37:37.344Z,99.90
2019-05-10T03:40:09.561Z,99.90
2019-05-10T03:42:38.116Z,99.90
2019-05-10T03:45:08.108Z,99.90
2019-05-10T03:47:36.674Z,99.90
2019-05-10T03:50:08.441Z,99.90
2019-05-10T03:52:36.974Z,99.90
2019-05-10T03:55:06.714Z,99.90
2019-05-10T03:57:36.094Z,99.90
2019-05-10T04:00:10.726Z,99.90
2019-05-10T04:02:39.266Z,99.90
2019-05-10T04:05:08.258Z,99.90
2019-05-10T04:07:36.807Z,99.90
2019-05-10T04:10:06.901Z,99.90
2019-05-10T04:12:35.500Z,99.90
2019-05-10T04:15:06.679Z,99.90
2019-05-10T04:17:35.221Z,99.90
2019-05-10T04:20:06.368Z,99.90
2019-05-10T04:22:34.922Z,99.90
2019-05-10T04:25:03.914Z,99.90
2019-05-10T04:27:33.308Z,99.90
2019-05-10T04:30:01.963Z,99.90
2019-05-10T04:32:30.490Z,99.90
2019-05-10T04:34:59.021Z,99.90
2019-05-10T04:37:27.580Z,99.90
2019-05-10T04:39:56.119Z,99.90
2019-05-10T04:42:24.679Z,99.90
2019-05-10T04:44:54.130Z,99.90
2019-05-10T04:47:22.791Z,99.90
2019-05-10T04:49:51.327Z,99.90
2019-05-10T04:52:19.890Z,99.90
2019-05-10T04:54:48.427Z,99.90
2019-05-10T04:57:16.990Z,99.90
2019-05-10T04:59:45.774Z,99.90
2019-05-10T05:02:14.336Z,99.90
2019-05-10T05:04:42.871Z,99.90
2019-05-10T05:07:11.481Z,99.90
2019-05-10T05:09:39.941Z,99.90
2019-05-10T05:12:08.432Z,99.90
2019-05-10T05:14:37.048Z,99.90
2019-05-10T05:17:05.533Z,99.90
2019-05-10T05:19:33.989Z,99.90
2019-05-10T05:22:02.471Z,99.90
2019-05-10T05:24:30.997Z,99.90
2019-05-10T05:26:59.482Z,99.90
2019-05-10T05:29:28.023Z,99.90
2019-05-10T05:32:01.033Z,99.90
2019-05-10T05:34:26.877Z,99.90
2019-05-10T05:36:55.411Z,99.90
2019-05-10T05:39:23.973Z,99.90
2019-05-10T05:41:56.293Z,99.90
2019-05-10T05:44:26.089Z,99.90
2019-05-10T05:46:52.982Z,99.90
2019-05-10T05:49:21.546Z,99.90
2019-05-10T05:51:50.150Z,99.90
2019-05-10T05:54:20.655Z,99.90
2019-05-10T05:56:50.663Z,99.90
2019-05-10T05:59:23.632Z,99.90
2019-05-10T06:01:49.253Z,99.90
2019-05-10T06:04:17.828Z,99.90
2019-05-10T06:06:46.371Z,99.90
2019-05-10T06:09:14.931Z,99.90
2019-05-10T06:11:43.467Z,99.90
2019-05-10T06:14:13.043Z,99.90
2019-05-10T06:16:44.853Z,99.90
2019-05-10T06:19:11.915Z,99.90
2019-05-10T06:21:40.452Z,99.90
2019-05-10T06:24:13.537Z,99.90
2019-05-10T06:26:39.277Z,99.90
2019-05-10T06:29:16.528Z,99.90
2019-05-10T06:31:38.113Z,99.90
2019-05-10T06:34:06.670Z,99.90
2019-05-10T06:36:35.227Z,99.90
2019-05-10T06:39:05.863Z,99.90
2019-05-10T06:41:34.574Z,99.90
2019-05-10T06:44:03.206Z,99.90
2019-05-10T06:46:31.760Z,99.90
2019-05-10T06:49:07.245Z,99.90
2019-05-10T06:51:30.778Z,99.90
2019-05-10T06:53:59.311Z,99.90
2019-05-10T06:56:27.911Z,99.90
2019-05-10T06:59:11.234Z,99.90
2019-05-10T07:01:26.659Z,99.90
2019-05-10T07:03:55.195Z,99.90
2019-05-10T07:06:23.799Z,99.90
2019-05-10T07:08:57.844Z,99.90
2019-05-10T07:11:22.531Z,99.90
2019-05-10T07:13:54.153Z,99.90
2019-05-10T07:16:24.593Z,99.90
2019-05-10T07:18:54.764Z,99.90
2019-05-10T07:21:21.695Z,99.90
2019-05-10T07:23:50.229Z,99.90
2019-05-10T07:26:23.948Z,99.90
2019-05-10T07:28:51.796Z,99.90
2019-05-10T07:31:23.349Z,99.90
2019-05-10T07:33:49.365Z,99.90
2019-05-10T07:36:20.794Z,99.90
2019-05-10T07:38:48.053Z,99.90
2019-05-10T07:41:19.597Z,99.90
2019-05-10T07:43:48.275Z,99.90
2019-05-10T07:46:17.018Z,99.90
2019-05-10T07:48:47.349Z,99.90
2019-05-10T07:51:15.759Z,99.90
2019-05-10T07:53:44.297Z,99.90
2019-05-10T07:56:12.872Z,99.90
2019-05-10T07:58:43.204Z,99.90
2019-05-10T08:01:11.690Z,99.90
2019-05-10T08:03:44.137Z,99.90
2019-05-10T08:06:10.479Z,99.90
2019-05-10T08:08:39.333Z,99.90
2019-05-10T08:11:08.662Z,99.90
2019-05-10T08:13:39.376Z,99.90
2019-05-10T08:16:11.953Z,99.90
2019-05-10T08:18:42.039Z,99.90
2019-05-10T08:21:20.902Z,99.90
2019-05-10T08:23:40.868Z,99.90
2019-05-10T08:26:11.017Z,99.90
2019-05-10T08:28:42.178Z,99.90
2019-05-10T08:31:12.173Z,99.90
2019-05-10T08:33:46.287Z,99.90
2019-05-10T08:36:12.114Z,99.90
2019-05-10T08:38:46.748Z,99.90
2019-05-10T08:41:14.667Z,99.90
2019-05-10T08:43:43.027Z,99.90
2019-05-10T08:46:11.951Z,99.90
2019-05-10T08:48:46.582Z,99.90
2019-05-10T08:51:12.532Z,99.90
2019-05-10T08:53:42.159Z,99.90
2019-05-10T08:56:16.089Z,99.90
2019-05-10T08:58:42.246Z,99.90
2019-05-10T09:01:23.998Z,99.90
2019-05-10T09:03:41.974Z,99.90
2019-05-10T09:06:14.311Z,99.90
2019-05-10T09:08:42.996Z,99.90
2019-05-10T09:11:11.163Z,99.90
2019-05-10T09:13:45.058Z,99.90
2019-05-10T09:16:09.896Z,99.90
2019-05-10T09:18:46.709Z,99.90
2019-05-10T09:21:10.546Z,99.90
2019-05-10T09:23:38.870Z,99.90
2019-05-10T09:26:10.552Z,99.90
2019-05-10T09:28:37.642Z,99.90
2019-05-10T09:31:18.657Z,99.90
2019-05-10T09:33:43.350Z,99.90
2019-05-10T09:36:06.643Z,99.90
2019-05-10T09:38:39.284Z,99.90
2019-05-10T09:41:05.546Z,99.90
2019-05-10T09:43:34.170Z,99.90
2019-05-10T09:46:02.897Z,99.90
2019-05-10T09:48:33.272Z,99.90
2019-05-10T09:51:03.977Z,99.90
2019-05-10T09:53:32.051Z,99.90
2019-05-10T09:56:03.137Z,99.90
2019-05-10T09:58:31.658Z,99.90
2019-05-10T10:01:13.727Z,99.90
2019-05-10T10:03:39.736Z,99.90
2019-05-10T10:06:06.009Z,99.90
2019-05-10T10:08:30.887Z,99.90
2019-05-10T10:11:10.153Z,99.90
2019-05-10T10:13:39.315Z,99.90
2019-05-10T10:16:03.956Z,99.90
2019-05-10T10:18:30.021Z,99.90
2019-05-10T10:20:58.505Z,99.90
2019-05-10T10:23:33.127Z,99.90
2019-05-10T10:25:57.999Z,99.00
2019-05-10T10:28:28.622Z,97.30
2019-05-10T10:31:03.442Z,96.90
2019-05-10T10:33:29.101Z,96.70
2019-05-10T10:36:04.854Z,96.30
2019-05-10T10:38:31.027Z,94.80
2019-05-10T10:40:58.684Z,96.00
2019-05-10T10:43:27.391Z,95.80
2019-05-10T10:45:57.417Z,95.10
2019-05-10T10:48:28.283Z,93.40
2019-05-10T10:50:58.611Z,93.00
2019-05-10T10:53:28.204Z,93.50
2019-05-10T10:56:03.643Z,92.00
2019-05-10T10:58:27.605Z,91.90
2019-05-10T11:00:56.263Z,92.20
2019-05-10T11:03:30.316Z,90.40
2019-05-10T11:05:55.011Z,91.50
2019-05-10T11:08:23.549Z,86.20
2019-05-10T11:10:52.122Z,83.90
2019-05-10T11:13:40.646Z,84.40
2019-05-10T11:15:51.592Z,83.10
2019-05-10T11:18:21.619Z,83.60
2019-05-10T11:20:53.919Z,84.10
2019-05-10T11:23:24.616Z,82.80
2019-05-10T11:25:56.285Z,79.10
2019-05-10T11:28:21.078Z,79.50
2019-05-10T11:30:51.214Z,79.50
2019-05-10T11:33:29.104Z,79.70
2019-05-10T11:35:51.387Z,81.80
2019-05-10T11:38:21.446Z,77.80
2019-05-10T11:40:50.234Z,79.60
2019-05-10T11:43:23.694Z,74.20
2019-05-10T11:45:51.336Z,76.60
2019-05-10T11:48:21.449Z,75.30
2019-05-10T11:50:51.389Z,74.90
2019-05-10T11:53:23.629Z,75.10
2019-05-10T11:55:51.738Z,74.60
2019-05-10T11:58:23.465Z,70.50
2019-05-10T12:00:55.866Z,75.00
2019-05-10T12:03:23.466Z,73.50
2019-05-10T12:05:53.219Z,73.60
2019-05-10T12:08:22.372Z,72.40
2019-05-10T12:13:24.816Z,71.10
2019-05-10T12:15:52.237Z,67.60
2019-05-10T12:18:26.615Z,71.30
2019-05-10T12:20:58.622Z,75.10
2019-05-10T12:23:29.691Z,75.00
2019-05-10T12:26:06.386Z,73.20
2019-05-10T12:26:50.350Z,74.40
2019-05-10T12:28:28.457Z,73.70
2019-05-10T12:30:52.044Z,73.20
2019-05-10T12:33:25.063Z,70.30
2019-05-10T12:35:51.090Z,70.60
2019-05-10T12:38:23.736Z,70.80
2019-05-10T12:40:51.389Z,72.60
2019-05-10T12:43:21.096Z,67.50
2019-05-10T12:45:51.763Z,73.70
2019-05-10T12:51:12.627Z,75.30
2019-05-10T12:53:44.656Z,77.00
2019-05-10T12:56:11.774Z,81.90
2019-05-10T12:58:40.243Z,73.10
2019-05-10T13:01:09.043Z,73.50
2019-05-10T13:03:38.515Z,71.10
2019-05-10T13:06:07.226Z,72.40
2019-05-10T13:08:35.787Z,71.70
2019-05-10T13:11:04.490Z,72.20
2019-05-10T13:13:32.996Z,70.70
2019-05-10T13:16:03.512Z,71.10
2019-05-10T13:18:49.808Z,73.40
2019-05-10T13:21:02.044Z,78.20
2019-05-10T13:23:30.601Z,73.40
2019-05-10T13:25:59.160Z,72.10
2019-05-10T13:28:27.638Z,70.40
2019-05-10T13:30:59.706Z,70.30
2019-05-10T13:33:29.313Z,64.70
2019-05-10T13:35:58.312Z,70.90
2019-05-10T13:38:27.210Z,73.90
2019-05-10T13:40:55.765Z,65.40
2019-05-10T13:43:26.878Z,67.10
2019-05-10T13:45:54.939Z,65.10
2019-05-10T13:48:26.290Z,66.00
2019-05-10T13:50:53.694Z,69.70
2019-05-10T13:53:23.265Z,68.00
2019-05-10T13:55:51.973Z,73.70
2019-05-10T13:58:20.515Z,72.90
2019-05-10T14:00:49.214Z,70.70
2019-05-10T14:03:17.765Z,67.30
2019-05-10T14:05:46.312Z,69.40
2019-05-10T14:08:14.869Z,67.90
2019-05-10T14:10:43.331Z,65.10
2019-05-10T14:13:11.907Z,68.20
2019-05-10T14:15:40.439Z,64.50
2019-05-10T14:18:09.014Z,66.80
2019-05-10T14:20:37.563Z,67.80
2019-05-10T14:23:06.122Z,64.30
2019-05-10T14:25:36.744Z,65.70
2019-05-10T14:28:09.593Z,70.00
2019-05-10T14:30:34.996Z,69.80
2019-05-10T14:33:08.519Z,69.10
2019-05-10T14:35:33.825Z,65.90
2019-05-10T14:38:08.327Z,66.10
2019-05-10T14:40:32.577Z,66.00
2019-05-10T14:43:01.168Z,64.30
2019-05-10T14:45:30.777Z,64.50
2019-05-10T14:47:59.350Z,64.70
2019-05-10T14:50:28.503Z,67.50
2019-05-10T14:52:57.283Z,66.20
2019-05-10T14:55:28.160Z,67.00
2019-05-10T14:57:56.193Z,66.40
2019-05-10T15:00:25.263Z,65.50
2019-05-10T15:05:59.290Z,62.70
2019-05-10T15:08:24.952Z,60.90
2019-05-10T15:10:56.989Z,63.30
2019-05-10T15:13:26.021Z,64.50
2019-05-10T15:15:53.935Z,61.90
2019-05-10T15:18:22.448Z,66.70
2019-05-10T15:20:50.985Z,67.70
2019-05-10T15:23:19.679Z,66.40
2019-05-10T15:25:57.241Z,63.70
2019-05-10T15:28:18.498Z,61.90
2019-05-10T15:30:52.118Z,60.80
2019-05-10T15:33:17.257Z,62.20
2019-05-10T15:35:51.566Z,61.90
2019-05-10T15:38:16.022Z,61.60
2019-05-10T15:40:45.943Z,61.60
2019-05-10T15:43:17.281Z,60.20
2019-05-10T15:45:46.036Z,59.60
2019-05-10T15:48:15.607Z,58.70
2019-05-10T15:50:44.187Z,62.60
2019-05-10T15:53:12.724Z,62.00
2019-05-10T15:55:41.314Z,63.70
2019-05-10T15:58:09.886Z,61.40
2019-05-10T16:00:41.369Z,62.60
2019-05-10T16:03:08.729Z,61.70
2019-05-10T16:05:43.644Z,62.80
2019-05-10T16:08:07.489Z,62.60
2019-05-10T16:10:39.342Z,63.60
2019-05-10T16:13:06.410Z,65.60
2019-05-10T16:15:34.954Z,65.80
2019-05-10T16:18:03.546Z,65.60
2019-05-10T16:20:37.390Z,65.40
2019-05-10T16:23:02.920Z,64.80
2019-05-10T16:25:39.250Z,64.70
2019-05-10T16:28:02.728Z,64.00
2019-05-10T16:30:31.306Z,65.40
2019-05-10T16:32:59.894Z,67.40
2019-05-10T16:35:38.359Z,68.10
2019-05-10T16:37:58.814Z,68.50
2019-05-10T16:40:27.360Z,68.20
2019-05-10T16:42:55.898Z,68.00
2019-05-10T16:45:25.579Z,66.00
2019-05-10T16:47:54.158Z,67.50
2019-05-10T16:50:26.034Z,65.90
2019-05-10T16:52:53.060Z,62.60
2019-05-10T16:55:21.566Z,63.00
2019-05-10T16:57:50.225Z,64.90
2019-05-10T17:00:19.014Z,65.90
2019-05-10T17:02:47.551Z,65.80
2019-05-10T17:05:17.470Z,66.70
2019-05-10T17:07:46.150Z,68.30
2019-05-10T17:10:14.830Z,68.40
2019-05-10T17:12:43.409Z,67.30
2019-05-10T17:15:12.189Z,69.20
2019-05-10T17:17:40.770Z,67.40
2019-05-10T17:20:14.037Z,68.70
2019-05-10T17:22:39.992Z,68.10
2019-05-10T17:25:09.774Z,67.40
2019-05-10T17:27:38.354Z,68.40
2019-05-10T17:30:07.726Z,69.10
2019-05-10T17:32:36.233Z,69.90
2019-05-10T17:35:07.634Z,70.70
2019-05-10T17:37:37.507Z,70.60
2019-05-10T17:40:10.619Z,72.20
2019-05-10T17:42:41.772Z,72.40
2019-05-10T17:45:10.437Z,74.20
2019-05-10T17:47:39.019Z,74.40
2019-05-10T17:50:07.939Z,74.90
2019-05-10T17:52:36.546Z,75.40
2019-05-10T17:55:10.907Z,75.30
2019-05-10T17:57:38.101Z,75.40
2019-05-10T18:00:10.620Z,75.20
2019-05-10T18:02:39.266Z,76.40
2019-05-10T18:05:08.474Z,76.70
2019-05-10T18:07:37.159Z,77.50
2019-05-10T18:10:06.977Z,77.70
2019-05-10T18:12:35.655Z,78.40
2019-05-10T18:15:06.676Z,79.10
2019-05-10T18:17:35.219Z,79.10
2019-05-10T18:20:04.829Z,78.80
2019-05-10T18:22:42.207Z,80.00
2019-05-10T18:25:04.090Z,81.60
2019-05-10T18:27:32.637Z,82.70
2019-05-10T18:30:01.197Z,81.60
2019-05-10T18:32:35.613Z,83.00
2019-05-10T18:34:59.949Z,83.60
2019-05-10T18:37:28.522Z,84.00
2019-05-10T18:39:57.089Z,86.60
2019-05-10T18:42:27.758Z,87.80
2019-05-10T18:44:55.857Z,88.70
2019-05-10T18:47:24.399Z,90.20
2019-05-10T18:49:52.979Z,90.30
2019-05-10T18:52:21.526Z,90.60
2019-05-10T18:54:50.163Z,91.10
2019-05-10T18:57:19.485Z,90.90
2019-05-10T18:59:48.238Z,90.40
2019-05-10T19:02:17.862Z,90.50
2019-05-10T19:04:52.234Z,91.50
2019-05-10T19:07:17.309Z,93.20
2019-05-10T19:09:46.022Z,95.90
2019-05-10T19:12:18.839Z,97.40
2019-05-10T19:14:44.731Z,98.30
2019-05-10T19:17:13.309Z,98.30
2019-05-10T19:19:42.378Z,98.10
2019-05-10T19:22:11.250Z,99.90
2019-05-10T19:24:39.793Z,99.90
2019-05-10T19:27:09.336Z,99.90
2019-05-10T19:29:45.384Z,99.90
2019-05-10T19:32:11.594Z,99.90
2019-05-10T19:34:39.541Z,99.90
2019-05-10T19:37:08.194Z,99.90
2019-05-10T19:39:37.217Z,99.90
2019-05-10T19:42:06.273Z,99.90
2019-05-10T19:44:40.541Z,99.90
2019-05-10T19:47:05.444Z,99.90
2019-05-10T19:49:34.301Z,99.90
2019-05-10T19:52:03.355Z,99.90
2019-05-10T19:54:32.009Z,99.90
2019-05-10T19:57:00.659Z,99.90
2019-05-10T19:59:30.390Z,99.90
2019-05-10T20:01:59.144Z,99.90
2019-05-10T20:04:27.806Z,99.90
2019-05-10T20:06:56.502Z,99.90
2019-05-10T20:09:25.579Z,99.90
2019-05-10T20:11:54.525Z,99.90
2019-05-10T20:14:23.133Z,99.90
2019-05-10T20:16:53.358Z,99.90
2019-05-10T20:19:22.063Z,99.90
2019-05-10T20:21:50.598Z,99.90
2019-05-10T20:24:19.100Z,99.90
2019-05-10T20:26:47.650Z,99.90
2019-05-10T20:29:16.223Z,99.90
2019-05-10T20:31:44.899Z,99.90
2019-05-10T20:34:13.469Z,99.90
2019-05-10T20:36:42.014Z,99.90
2019-05-10T20:39:10.595Z,99.90
2019-05-10T20:41:39.130Z,99.90
2019-05-10T20:44:07.716Z,99.90
2019-05-10T20:46:36.254Z,99.90
2019-05-10T20:49:04.830Z,99.90
2019-05-10T20:51:33.350Z,99.90
2019-05-10T20:54:01.985Z,99.90
2019-05-10T20:56:30.506Z,99.90
2019-05-10T20:58:59.078Z,99.90
2019-05-10T21:01:27.541Z,99.90
2019-05-10T21:03:56.123Z,99.90
2019-05-10T21:06:24.940Z,99.90
2019-05-10T21:08:53.528Z,99.90
2019-05-10T21:11:22.102Z,99.90
2019-05-10T21:13:50.678Z,99.90
2019-05-10T21:16:19.249Z,99.90
2019-05-10T21:18:47.719Z,99.90
2019-05-10T21:21:16.325Z,99.90
2019-05-10T21:23:44.790Z,99.90
2019-05-10T21:26:13.377Z,99.90
2019-05-10T21:28:41.914Z,99.90
2019-05-10T21:31:10.495Z,99.90
2019-05-10T21:33:39.079Z,99.90
2019-05-10T21:36:07.911Z,99.90
2019-05-10T21:38:36.506Z,99.90
2019-05-10T21:41:05.044Z,99.90
2019-05-10T21:43:33.961Z,99.90
2019-05-10T21:46:02.497Z,99.90
2019-05-10T21:48:31.003Z,99.90
2019-05-10T21:50:59.539Z,99.90
2019-05-10T21:53:28.135Z,99.90
2019-05-10T21:55:56.710Z,99.90
2019-05-10T21:58:25.214Z,99.90
2019-05-10T22:00:53.991Z,99.90
2019-05-10T22:03:22.608Z,99.90
2019-05-10T22:05:51.178Z,99.90
2019-05-10T22:08:19.756Z,99.90
2019-05-10T22:10:48.357Z,99.90
2019-05-10T22:13:16.866Z,99.90
2019-05-10T22:15:45.507Z,99.90
2019-05-10T22:18:14.042Z,99.90
2019-05-10T22:20:42.885Z,99.90
2019-05-10T22:23:11.427Z,99.90
2019-05-10T22:25:40.087Z,99.90
2019-05-10T22:28:08.653Z,99.90
2019-05-10T22:30:37.319Z,99.90
2019-05-10T22:33:05.851Z,99.90
2019-05-10T22:35:34.398Z,99.90
2019-05-10T22:38:03.042Z,99.90
2019-05-10T22:40:31.573Z,99.90
2019-05-10T22:43:00.075Z,99.90
2019-05-10T22:45:28.607Z,99.90
2019-05-10T22:47:57.195Z,99.90
2019-05-10T22:50:25.729Z,99.90
2019-05-10T22:52:54.261Z,99.90
2019-05-10T22:55:22.826Z,99.90
2019-05-10T22:57:51.362Z,99.90
2019-05-10T23:00:20.487Z,99.90
2019-05-10T23:02:49.079Z,99.90
2019-05-10T23:05:17.615Z,99.90
2019-05-10T23:07:46.202Z,99.90
2019-05-10T23:10:15.088Z,99.90
2019-05-10T23:12:43.743Z,99.90
2019-05-10T23:15:12.350Z,99.90
2019-05-10T23:17:40.924Z,99.90
2019-05-10T23:20:09.673Z,99.90
2019-05-10T23:22:38.186Z,99.90
2019-05-10T23:25:08.101Z,99.90
2019-05-10T23:27:36.679Z,99.90
2019-05-10T23:30:06.467Z,99.90
2019-05-10T23:32:35.109Z,99.90
2019-05-10T23:35:04.928Z,99.90
2019-05-10T23:37:33.458Z,99.90
2019-05-10T23:40:02.037Z,99.90
2019-05-10T23:42:31.003Z,99.90
2019-05-10T23:44:59.513Z,99.90
2019-05-10T23:47:28.045Z,99.90
2019-05-10T23:49:56.699Z,99.90
2019-05-10T23:52:25.231Z,99.90
2019-05-10T23:54:53.742Z,99.90
2019-05-10T23:57:22.330Z,99.90
2019-05-10T23:59:50.878Z,99.90
